Time;durP1;ratioP1;P1;durP2;ratioP2;P2;SDS_P1;SDS_P2;PMS_P1;PMS_P2;Temp;Humidity;BMP_temperature;BMP_pressure;BME280_temperature;BME280_humidity;BME280_pressure;Samples;Min_cycle;Max_cycle;Signal;HPM_P1;HPM_P2
2023/06/10 00:02:03;;;;;;;;;;;16.50;99.90;;;;;;5017610;28;19925;-85
2023/06/10 00:04:29;;;;;;;;;;;16.60;99.90;;;;;;5014595;28;20028;-85
2023/06/10 00:06:55;;;;;;;;;;;16.50;99.90;;;;;;5011733;28;19996;-84
2023/06/10 00:09:21;;;;;;;;;;;16.50;99.90;;;;;;5015821;28;20393;-84
2023/06/10 00:11:46;;;;;;;;;;;16.40;99.90;;;;;;5017093;28;20279;-85
2023/06/10 00:14:12;;;;;;;;;;;16.10;99.90;;;;;;5017670;28;20048;-85
2023/06/10 00:16:38;;;;;;;;;;;16.40;99.90;;;;;;5012522;28;19973;-85
2023/06/10 00:19:04;;;;;;;;;;;16.40;99.90;;;;;;5026482;28;19948;-84
2023/06/10 00:21:39;;;;;;;;;;;16.30;99.90;;;;;;5008682;28;19925;-84
2023/06/10 00:24:06;;;;;;;;;;;16.30;99.90;;;;;;5032313;28;19961;-85
2023/06/10 00:26:32;;;;;;;;;;;16.30;99.90;;;;;;5034149;28;20087;-84
2023/06/10 00:28:59;;;;;;;;;;;16.30;99.90;;;;;;4992881;28;20004;-85
2023/06/10 00:31:26;;;;;;;;;;;16.30;99.90;;;;;;5012163;28;19925;-85
2023/06/10 00:33:52;;;;;;;;;;;16.20;99.90;;;;;;5000317;28;19929;-85
2023/06/10 00:36:17;;;;;;;;;;;16.20;99.90;;;;;;5008542;28;19925;-85
2023/06/10 00:38:43;;;;;;;;;;;16.20;99.90;;;;;;4990651;28;20419;-85
2023/06/10 00:41:09;;;;;;;;;;;16.20;99.90;;;;;;5002721;28;19925;-85
2023/06/10 00:43:34;;;;;;;;;;;16.10;99.90;;;;;;5009675;28;19925;-84
2023/06/10 00:46:00;;;;;;;;;;;16.10;99.90;;;;;;4999449;28;19926;-86
2023/06/10 00:48:26;;;;;;;;;;;16.00;99.90;;;;;;4990184;28;19988;-85
2023/06/10 00:50:52;;;;;;;;;;;16.00;99.90;;;;;;5011350;28;19936;-86
2023/06/10 00:53:18;;;;;;;;;;;15.80;99.90;;;;;;5011843;28;19925;-85
2023/06/10 00:55:44;;;;;;;;;;;15.90;99.90;;;;;;5008948;28;19932;-85
2023/06/10 00:58:10;;;;;;;;;;;15.80;99.90;;;;;;5007749;28;19926;-84
2023/06/10 01:00:35;;;;;;;;;;;15.70;99.90;;;;;;5013833;28;19926;-85
2023/06/10 01:03:02;;;;;;;;;;;15.70;99.90;;;;;;5002512;28;19925;-85
2023/06/10 01:05:27;;;;;;;;;;;15.60;99.90;;;;;;5010241;28;19925;-85
2023/06/10 01:08:00;;;;;;;;;;;15.50;99.90;;;;;;5010903;28;20001;-85
2023/06/10 01:10:41;;;;;;;;;;;15.40;99.90;;;;;;4995251;28;19976;-85
2023/06/10 01:13:11;;;;;;;;;;;15.40;99.90;;;;;;5017061;28;20286;-84
2023/06/10 01:15:38;;;;;;;;;;;15.30;99.90;;;;;;5016629;28;20283;-85
2023/06/10 01:18:08;;;;;;;;;;;15.30;99.90;;;;;;5003112;28;19925;-84
2023/06/10 01:20:36;;;;;;;;;;;15.20;99.90;;;;;;4995265;28;19930;-85
2023/06/10 01:23:02;;;;;;;;;;;15.20;99.90;;;;;;4998314;28;19945;-85
2023/06/10 01:25:28;;;;;;;;;;;15.20;99.90;;;;;;5000290;28;19933;-85
2023/06/10 01:27:57;;;;;;;;;;;15.20;99.90;;;;;;5001828;28;19925;-85
2023/06/10 01:30:29;;;;;;;;;;;15.10;99.90;;;;;;4989957;28;19929;-85
2023/06/10 01:32:55;;;;;;;;;;;15.00;99.90;;;;;;5000893;28;19925;-85
2023/06/10 01:35:23;;;;;;;;;;;15.00;99.90;;;;;;5014510;28;19925;-86
2023/06/10 01:37:48;;;;;;;;;;;15.00;99.90;;;;;;4996067;28;19933;-86
2023/06/10 01:40:15;;;;;;;;;;;14.90;99.90;;;;;;5014726;28;19925;-86
2023/06/10 01:42:41;;;;;;;;;;;14.90;99.90;;;;;;5007272;28;19926;-84
2023/06/10 01:45:06;;;;;;;;;;;14.90;99.90;;;;;;4999797;28;19932;-85
2023/06/10 01:47:32;;;;;;;;;;;14.80;99.90;;;;;;4993486;28;19929;-84
2023/06/10 01:49:58;;;;;;;;;;;14.80;99.90;;;;;;4987266;28;20287;-85
2023/06/10 01:52:23;;;;;;;;;;;14.70;99.90;;;;;;4988685;28;19929;-84
2023/06/10 01:54:49;;;;;;;;;;;14.70;99.90;;;;;;5015287;28;19925;-85
2023/06/10 01:57:15;;;;;;;;;;;14.70;99.90;;;;;;5009838;28;19932;-85
2023/06/10 01:59:44;;;;;;;;;;;14.70;99.90;;;;;;4992442;28;20015;-84
2023/06/10 02:02:09;;;;;;;;;;;14.70;99.90;;;;;;5008951;28;19991;-84
2023/06/10 02:04:35;;;;;;;;;;;14.70;99.90;;;;;;5016163;28;20367;-86
2023/06/10 02:07:03;;;;;;;;;;;14.60;99.90;;;;;;4997746;28;20331;-85
2023/06/10 02:09:29;;;;;;;;;;;14.50;99.90;;;;;;4999894;28;20383;-85
2023/06/10 02:11:55;;;;;;;;;;;14.40;99.90;;;;;;4997642;28;20385;-85
2023/06/10 02:14:21;;;;;;;;;;;14.40;99.90;;;;;;4988150;28;19928;-84
2023/06/10 02:16:47;;;;;;;;;;;14.40;99.90;;;;;;5013019;28;20007;-85
2023/06/10 02:19:13;;;;;;;;;;;14.30;99.90;;;;;;5010619;28;19926;-85
2023/06/10 02:21:39;;;;;;;;;;;14.30;99.90;;;;;;4995205;28;19933;-84
2023/06/10 02:24:05;;;;;;;;;;;14.30;99.90;;;;;;5014854;28;19925;-85
2023/06/10 02:26:31;;;;;;;;;;;14.30;99.90;;;;;;5015382;28;19972;-85
2023/06/10 02:28:58;;;;;;;;;;;14.20;99.90;;;;;;5012297;28;20429;-84
2023/06/10 02:31:28;;;;;;;;;;;14.30;99.90;;;;;;4998973;28;19932;-85
2023/06/10 02:33:54;;;;;;;;;;;14.20;99.90;;;;;;5015497;28;20309;-84
2023/06/10 02:36:21;;;;;;;;;;;14.20;99.90;;;;;;5010204;28;20008;-84
2023/06/10 02:38:47;;;;;;;;;;;14.20;99.90;;;;;;5005502;28;19925;-84
2023/06/10 02:41:12;;;;;;;;;;;13.70;99.90;;;;;;4994278;28;20483;-85
2023/06/10 02:43:39;;;;;;;;;;;14.10;99.90;;;;;;5006071;28;19931;-84
2023/06/10 02:46:04;;;;;;;;;;;14.00;99.90;;;;;;5009135;28;19932;-84
2023/06/10 02:48:30;;;;;;;;;;;14.00;99.90;;;;;;4982159;28;20349;-85
2023/06/10 02:50:56;;;;;;;;;;;13.90;99.90;;;;;;5009214;28;19925;-85
2023/06/10 02:53:21;;;;;;;;;;;14.00;99.90;;;;;;4998373;28;19929;-85
2023/06/10 02:55:47;;;;;;;;;;;13.90;99.90;;;;;;4982746;28;20413;-85
2023/06/10 02:58:12;;;;;;;;;;;13.90;99.90;;;;;;4997713;28;19932;-85
2023/06/10 03:00:40;;;;;;;;;;;13.90;99.90;;;;;;4998701;28;19975;-84
2023/06/10 03:03:06;;;;;;;;;;;13.80;99.90;;;;;;4999076;28;20326;-85
2023/06/10 03:05:32;;;;;;;;;;;13.80;99.90;;;;;;5008851;28;19975;-85
2023/06/10 03:07:58;;;;;;;;;;;13.70;99.90;;;;;;5008238;28;19978;-84
2023/06/10 03:10:24;;;;;;;;;;;13.70;99.90;;;;;;5011486;28;20252;-85
2023/06/10 03:12:52;;;;;;;;;;;13.70;99.90;;;;;;4995857;28;20217;-84
2023/06/10 03:15:17;;;;;;;;;;;13.70;99.90;;;;;;5015240;28;19929;-84
2023/06/10 03:17:43;;;;;;;;;;;13.80;99.90;;;;;;5015116;28;19925;-84
2023/06/10 03:20:10;;;;;;;;;;;13.70;99.90;;;;;;5014592;28;19925;-85
2023/06/10 03:22:36;;;;;;;;;;;13.70;99.90;;;;;;5026829;28;19925;-84
2023/06/10 03:25:01;;;;;;;;;;;13.60;99.90;;;;;;5014132;28;19929;-84
2023/06/10 03:27:28;;;;;;;;;;;13.60;99.90;;;;;;5014901;28;20008;-84
2023/06/10 03:29:54;;;;;;;;;;;13.60;99.90;;;;;;4998830;28;20297;-85
2023/06/10 03:32:20;;;;;;;;;;;13.80;99.90;;;;;;5010228;28;20019;-84
2023/06/10 03:34:47;;;;;;;;;;;13.60;99.90;;;;;;5016547;28;19988;-85
2023/06/10 03:37:13;;;;;;;;;;;12.10;99.90;;;;;;5016862;28;20344;-84
2023/06/10 03:39:38;;;;;;;;;;;13.50;99.90;;;;;;5011588;28;20003;-85
2023/06/10 03:42:05;;;;;;;;;;;13.50;99.90;;;;;;5007818;28;19942;-86
2023/06/10 03:44:31;;;;;;;;;;;13.60;99.90;;;;;;5000594;28;19929;-85
2023/06/10 03:46:57;;;;;;;;;;;13.60;99.90;;;;;;5017043;28;19921;-86
2023/06/10 03:49:29;;;;;;;;;;;13.60;99.90;;;;;;5011807;28;19913;-85
2023/06/10 03:51:54;;;;;;;;;;;13.70;99.90;;;;;;5033620;28;19925;-84
2023/06/10 03:54:20;;;;;;;;;;;13.80;99.90;;;;;;5007197;28;19925;-85
2023/06/10 03:56:48;;;;;;;;;;;13.90;99.90;;;;;;5005340;28;19929;-84
2023/06/10 03:59:13;;;;;;;;;;;14.00;99.90;;;;;;5008867;28;19929;-85
2023/06/10 04:01:40;;;;;;;;;;;14.10;99.90;;;;;;5005801;28;20015;-84
2023/06/10 04:04:06;;;;;;;;;;;14.10;99.90;;;;;;5018183;28;19925;-84
2023/06/10 04:06:32;;;;;;;;;;;14.20;99.90;;;;;;5012509;28;20031;-84
2023/06/10 04:08:58;;;;;;;;;;;14.30;99.90;;;;;;5002552;28;19968;-85
2023/06/10 04:11:24;;;;;;;;;;;14.30;99.90;;;;;;4990294;28;19926;-85
2023/06/10 04:13:50;;;;;;;;;;;14.20;99.90;;;;;;5015395;28;20209;-86
2023/06/10 04:16:15;;;;;;;;;;;14.30;99.90;;;;;;5010163;28;19925;-85
2023/06/10 04:18:41;;;;;;;;;;;14.30;99.90;;;;;;4998724;28;19925;-85
2023/06/10 04:21:08;;;;;;;;;;;14.30;99.90;;;;;;5006740;28;19932;-85
2023/06/10 04:23:35;;;;;;;;;;;14.30;99.90;;;;;;5001159;28;20441;-85
2023/06/10 04:26:05;;;;;;;;;;;14.30;99.90;;;;;;5028452;28;19933;-85
2023/06/10 04:28:31;;;;;;;;;;;14.30;99.90;;;;;;4985379;28;19929;-84
2023/06/10 04:30:57;;;;;;;;;;;14.40;99.90;;;;;;5000983;28;19933;-84
2023/06/10 04:33:24;;;;;;;;;;;11.80;99.90;;;;;;4997813;28;20004;-84
2023/06/10 04:35:50;;;;;;;;;;;14.20;99.90;;;;;;5034296;28;20012;-84
2023/06/10 04:38:15;;;;;;;;;;;14.20;99.90;;;;;;4987369;28;19991;-84
2023/06/10 04:40:41;;;;;;;;;;;16.90;99.90;;;;;;5024017;28;19925;-84
2023/06/10 04:43:07;;;;;;;;;;;14.90;99.90;;;;;;5018259;28;19932;-84
2023/06/10 04:45:32;;;;;;;;;;;14.20;99.90;;;;;;5012927;28;19931;-83
2023/06/10 04:47:58;;;;;;;;;;;14.20;99.90;;;;;;5053084;28;19925;-84
2023/06/10 04:50:23;;;;;;;;;;;14.20;99.90;;;;;;5002932;28;19951;-84
2023/06/10 04:52:49;;;;;;;;;;;14.20;99.90;;;;;;5017827;28;19975;-83
2023/06/10 04:55:15;;;;;;;;;;;14.20;99.90;;;;;;5033996;28;20012;-85
2023/06/10 04:57:41;;;;;;;;;;;14.10;99.90;;;;;;5031637;28;19924;-86
2023/06/10 05:00:08;;;;;;;;;;;12.20;99.90;;;;;;5025621;28;19925;-83
2023/06/10 05:02:33;;;;;;;;;;;14.30;99.90;;;;;;5030395;28;19924;-83
2023/06/10 05:04:59;;;;;;;;;;;14.20;99.90;;;;;;5016838;28;20393;-83
2023/06/10 05:07:25;;;;;;;;;;;14.30;99.90;;;;;;5017387;28;19954;-84
2023/06/10 05:09:51;;;;;;;;;;;14.40;99.90;;;;;;5027759;28;19975;-84
2023/06/10 05:12:17;;;;;;;;;;;14.30;99.90;;;;;;5028410;28;20024;-84
2023/06/10 05:14:42;;;;;;;;;;;14.40;99.90;;;;;;5033688;28;19925;-88
2023/06/10 05:17:14;;;;;;;;;;;14.40;99.90;;;;;;5034764;28;20393;-86
2023/06/10 05:19:42;;;;;;;;;;;14.50;99.90;;;;;;5010613;28;19925;-87
2023/06/10 05:22:07;;;;;;;;;;;14.70;99.90;;;;;;5029234;28;19929;-86
2023/06/10 05:24:33;;;;;;;;;;;14.50;99.90;;;;;;5049729;28;20399;-86
2023/06/10 05:26:59;;;;;;;;;;;13.10;99.90;;;;;;5016422;28;19929;-86
2023/06/10 05:29:25;;;;;;;;;;;14.50;99.90;;;;;;5014084;28;20478;-86
2023/06/10 05:31:53;;;;;;;;;;;14.70;99.90;;;;;;5026157;28;19925;-84
2023/06/10 05:34:19;;;;;;;;;;;14.60;99.90;;;;;;5009256;28;20015;-84
2023/06/10 05:36:44;;;;;;;;;;;14.60;99.90;;;;;;5043493;28;20000;-85
2023/06/10 05:39:10;;;;;;;;;;;14.60;99.90;;;;;;5008288;28;20272;-85
2023/06/10 05:41:36;;;;;;;;;;;14.80;99.90;;;;;;5027466;28;19933;-84
2023/06/10 05:44:01;;;;;;;;;;;14.80;99.90;;;;;;5012402;28;20325;-84
2023/06/10 05:46:27;;;;;;;;;;;14.80;99.90;;;;;;5013901;28;19925;-84
2023/06/10 05:48:55;;;;;;;;;;;14.80;99.90;;;;;;5038445;28;20810;-84
2023/06/10 05:51:21;;;;;;;;;;;14.80;99.90;;;;;;5025845;28;19974;-84
2023/06/10 05:53:47;;;;;;;;;;;14.80;99.90;;;;;;5017745;28;19937;-84
2023/06/10 05:56:13;;;;;;;;;;;14.90;99.90;;;;;;5030791;28;19925;-85
2023/06/10 05:58:39;;;;;;;;;;;15.00;99.90;;;;;;5013037;28;19973;-84
2023/06/10 06:01:04;;;;;;;;;;;14.90;99.90;;;;;;5027166;28;19971;-84
2023/06/10 06:03:30;;;;;;;;;;;14.90;99.90;;;;;;5034358;28;19960;-84
2023/06/10 06:05:56;;;;;;;;;;;14.90;99.90;;;;;;5034281;28;20358;-84
2023/06/10 06:08:21;;;;;;;;;;;15.20;99.90;;;;;;5035279;28;20278;-85
2023/06/10 06:10:50;;;;;;;;;;;15.20;99.90;;;;;;5029222;28;19929;-86
2023/06/10 06:13:15;;;;;;;;;;;15.30;99.90;;;;;;5018793;28;19924;-85
2023/06/10 06:15:41;;;;;;;;;;;15.40;99.90;;;;;;5018630;28;20020;-85
2023/06/10 06:18:07;;;;;;;;;;;15.40;99.90;;;;;;5035611;28;20452;-84
2023/06/10 06:20:32;;;;;;;;;;;15.40;99.90;;;;;;5027928;28;19925;-85
2023/06/10 06:22:58;;;;;;;;;;;15.40;99.90;;;;;;5029525;28;20004;-84
2023/06/10 06:25:23;;;;;;;;;;;15.50;99.90;;;;;;5035003;28;19924;-83
2023/06/10 06:27:49;;;;;;;;;;;15.40;99.90;;;;;;5020235;28;19932;-84
2023/06/10 06:30:15;;;;;;;;;;;15.50;99.90;;;;;;5013622;28;19978;-85
2023/06/10 06:32:40;;;;;;;;;;;15.50;99.90;;;;;;5032250;28;19932;-85
2023/06/10 06:35:07;;;;;;;;;;;15.70;99.90;;;;;;5035602;28;19925;-85
2023/06/10 06:37:33;;;;;;;;;;;15.70;99.90;;;;;;5033110;28;20378;-84
2023/06/10 06:39:59;;;;;;;;;;;15.80;99.90;;;;;;5025564;28;19925;-84
2023/06/10 06:42:25;;;;;;;;;;;15.80;99.90;;;;;;5009533;28;20449;-84
2023/06/10 06:44:50;;;;;;;;;;;15.90;99.90;;;;;;5026696;28;20063;-85
2023/06/10 06:47:19;;;;;;;;;;;16.10;99.90;;;;;;5009056;28;19975;-84
2023/06/10 06:49:48;;;;;;;;;;;16.20;99.90;;;;;;5030813;28;19925;-85
2023/06/10 06:52:17;;;;;;;;;;;16.20;99.90;;;;;;5018460;28;20278;-84
2023/06/10 06:54:43;;;;;;;;;;;16.20;99.90;;;;;;4989222;28;20355;-84
2023/06/10 06:57:08;;;;;;;;;;;16.20;99.90;;;;;;5010333;28;19943;-84
2023/06/10 06:59:34;;;;;;;;;;;16.20;99.90;;;;;;5022206;28;19925;-84
2023/06/10 07:01:59;;;;;;;;;;;16.20;99.90;;;;;;4994735;28;19925;-84
2023/06/10 07:04:25;;;;;;;;;;;16.30;99.90;;;;;;5014977;28;19925;-84
2023/06/10 07:06:51;;;;;;;;;;;16.30;99.90;;;;;;5006216;28;19926;-85
2023/06/10 07:09:16;;;;;;;;;;;16.30;99.90;;;;;;5022769;28;20398;-85
2023/06/10 07:11:42;;;;;;;;;;;16.40;99.90;;;;;;5011744;28;20062;-85
2023/06/10 07:14:08;;;;;;;;;;;16.50;99.90;;;;;;5020841;28;19926;-84
2023/06/10 07:16:34;;;;;;;;;;;16.60;99.90;;;;;;5018950;28;19929;-85
2023/06/10 07:18:59;;;;;;;;;;;16.70;99.90;;;;;;5030479;28;19936;-85
2023/06/10 07:21:25;;;;;;;;;;;16.70;99.90;;;;;;5034902;28;19925;-86
2023/06/10 07:23:53;;;;;;;;;;;16.70;99.90;;;;;;5016366;28;19981;-85
2023/06/10 07:26:19;;;;;;;;;;;16.80;99.90;;;;;;5015338;28;19969;-85
2023/06/10 07:28:45;;;;;;;;;;;16.90;99.90;;;;;;5022288;28;19925;-84
2023/06/10 07:31:11;;;;;;;;;;;16.90;99.90;;;;;;5035217;28;19925;-84
2023/06/10 07:33:39;;;;;;;;;;;16.90;99.90;;;;;;5025472;28;19932;-85
2023/06/10 07:36:05;;;;;;;;;;;17.10;99.90;;;;;;5002535;28;19929;-85
2023/06/10 07:38:33;;;;;;;;;;;17.20;99.90;;;;;;5006929;28;20375;-87
2023/06/10 07:40:59;;;;;;;;;;;17.30;99.90;;;;;;5010889;28;19926;-85
2023/06/10 07:43:25;;;;;;;;;;;18.00;99.90;;;;;;5009543;28;19947;-84
2023/06/10 07:45:50;;;;;;;;;;;17.30;99.90;;;;;;5030034;28;19926;-85
2023/06/10 07:48:16;;;;;;;;;;;17.30;99.90;;;;;;5006231;28;20399;-86
2023/06/10 07:50:42;;;;;;;;;;;17.40;99.90;;;;;;5001625;28;20086;-86
2023/06/10 07:53:07;;;;;;;;;;;17.40;99.90;;;;;;5018386;28;20367;-86
2023/06/10 07:55:33;;;;;;;;;;;17.60;99.90;;;;;;5011151;28;19935;-85
2023/06/10 07:57:59;;;;;;;;;;;17.70;99.90;;;;;;4991325;28;20355;-86
2023/06/10 08:00:24;;;;;;;;;;;17.70;99.90;;;;;;5024156;28;20039;-85
2023/06/10 08:02:50;;;;;;;;;;;17.70;99.90;;;;;;5013292;28;19967;-87
2023/06/10 08:05:16;;;;;;;;;;;17.80;99.90;;;;;;5021598;28;20071;-86
2023/06/10 08:07:41;;;;;;;;;;;17.90;99.90;;;;;;5000979;28;20243;-87
2023/06/10 08:10:07;;;;;;;;;;;17.90;99.90;;;;;;4990919;28;19974;-86
2023/06/10 08:12:33;;;;;;;;;;;17.90;99.90;;;;;;5017953;28;19928;-87
2023/06/10 08:14:59;;;;;;;;;;;18.00;99.90;;;;;;5013096;28;19979;-86
2023/06/10 08:17:25;;;;;;;;;;;18.10;99.90;;;;;;5003493;28;19976;-85
2023/06/10 08:19:51;;;;;;;;;;;18.20;99.90;;;;;;5023271;28;19930;-85
2023/06/10 08:22:16;;;;;;;;;;;18.20;99.90;;;;;;5005046;28;19925;-86
2023/06/10 08:24:45;;;;;;;;;;;18.30;99.90;;;;;;5017813;28;19933;-86
2023/06/10 08:27:11;;;;;;;;;;;18.40;99.90;;;;;;4999723;28;19925;-86
2023/06/10 08:29:37;;;;;;;;;;;18.70;99.90;;;;;;5001802;28;19931;-85
2023/06/10 08:32:03;;;;;;;;;;;18.50;99.90;;;;;;5017306;28;20369;-85
2023/06/10 08:34:31;;;;;;;;;;;18.60;99.90;;;;;;4992799;28;19926;-86
2023/06/10 08:36:59;;;;;;;;;;;18.70;99.90;;;;;;5019012;28;19925;-86
2023/06/10 08:39:25;;;;;;;;;;;18.90;99.90;;;;;;5022728;28;19925;-86
2023/06/10 08:42:05;;;;;;;;;;;18.90;99.90;;;;;;5017453;28;19925;-86
2023/06/10 08:44:32;;;;;;;;;;;19.00;99.90;;;;;;5034218;28;19964;-86
2023/06/10 08:46:59;;;;;;;;;;;19.00;99.90;;;;;;5012044;28;19925;-86
2023/06/10 08:49:26;;;;;;;;;;;19.10;99.90;;;;;;5020526;28;20256;-86
2023/06/10 08:51:55;;;;;;;;;;;19.50;99.90;;;;;;5032662;28;19937;-86
2023/06/10 08:54:22;;;;;;;;;;;19.20;99.90;;;;;;5028879;28;19925;-86
2023/06/10 08:56:49;;;;;;;;;;;19.40;99.90;;;;;;4995042;28;19925;-86
2023/06/10 08:59:16;;;;;;;;;;;18.40;99.90;;;;;;5000832;28;19951;-86
2023/06/10 09:01:42;;;;;;;;;;;19.70;99.90;;;;;;4995804;28;19955;-87
2023/06/10 09:04:08;;;;;;;;;;;19.70;99.90;;;;;;4995436;28;20382;-87
2023/06/10 09:06:34;;;;;;;;;;;19.70;99.90;;;;;;5011304;28;19925;-86
2023/06/10 09:09:00;;;;;;;;;;;19.70;99.90;;;;;;5003750;28;19929;-87
2023/06/10 09:11:26;;;;;;;;;;;19.80;99.90;;;;;;5010081;28;19925;-87
2023/06/10 09:13:52;;;;;;;;;;;19.90;99.90;;;;;;5008853;28;19930;-86
2023/06/10 09:16:18;;;;;;;;;;;20.00;99.90;;;;;;4988619;28;19933;-87
2023/06/10 09:18:43;;;;;;;;;;;20.00;99.90;;;;;;4988482;28;19933;-87
2023/06/10 09:21:09;;;;;;;;;;;20.10;99.90;;;;;;5006572;28;19932;-86
2023/06/10 09:23:36;;;;;;;;;;;20.20;99.90;;;;;;4997926;28;20004;-87
2023/06/10 09:26:03;;;;;;;;;;;20.30;99.90;;;;;;4987063;28;19979;-87
2023/06/10 09:28:29;;;;;;;;;;;20.40;99.90;;;;;;5014083;28;19926;-87
2023/06/10 09:31:02;;;;;;;;;;;20.60;99.90;;;;;;5014949;28;19925;-87
2023/06/10 09:33:27;;;;;;;;;;;20.70;99.90;;;;;;5017082;28;19961;-87
2023/06/10 09:35:55;;;;;;;;;;;20.80;99.90;;;;;;5015782;28;19983;-87
2023/06/10 09:38:22;;;;;;;;;;;20.80;99.90;;;;;;5016030;28;20406;-86
2023/06/10 09:40:54;;;;;;;;;;;20.80;99.90;;;;;;4994869;28;19926;-87
2023/06/10 09:43:20;;;;;;;;;;;20.90;99.90;;;;;;4996526;28;19925;-87
2023/06/10 09:45:49;;;;;;;;;;;21.10;99.90;;;;;;5015793;28;20378;-87
2023/06/10 09:48:15;;;;;;;;;;;21.20;99.90;;;;;;5016259;28;19925;-86
2023/06/10 09:50:46;;;;;;;;;;;21.30;99.90;;;;;;5011254;28;19929;-87
2023/06/10 09:53:12;;;;;;;;;;;21.40;99.90;;;;;;5007990;28;20338;-87
2023/06/10 09:55:39;;;;;;;;;;;21.40;99.90;;;;;;4983671;28;19932;-87
2023/06/10 09:58:04;;;;;;;;;;;21.50;99.90;;;;;;5027098;28;19925;-86
2023/06/10 10:00:36;;;;;;;;;;;21.50;99.90;;;;;;5012983;28;20352;-87
2023/06/10 10:03:02;;;;;;;;;;;21.70;99.90;;;;;;5016236;28;19929;-86
2023/06/10 10:05:30;;;;;;;;;;;21.90;99.90;;;;;;4998903;28;20383;-88
2023/06/10 10:07:56;;;;;;;;;;;21.80;99.90;;;;;;5003612;28;20380;-87
2023/06/10 10:10:22;;;;;;;;;;;21.90;99.90;;;;;;5019770;28;19936;-87
2023/06/10 10:12:48;;;;;;;;;;;22.40;99.90;;;;;;5010101;28;20386;-87
2023/06/10 10:15:15;;;;;;;;;;;22.10;99.90;;;;;;5011351;28;19965;-87
2023/06/10 10:17:47;;;;;;;;;;;22.50;99.90;;;;;;5012103;28;19980;-87
2023/06/10 10:20:17;;;;;;;;;;;22.30;99.90;;;;;;5022745;28;19929;-88
2023/06/10 10:23:07;;;;;;;;;;;22.20;99.70;;;;;;5016047;28;20398;-88
2023/06/10 10:28:32;;;;;;;;;;;20.30;98.20;;;;;;5016770;28;19932;-87
2023/06/10 10:31:10;;;;;;;;;;;22.60;98.90;;;;;;5007723;28;19933;-88
2023/06/10 10:33:56;;;;;;;;;;;;;;;;;;;;;
2023/06/10 10:36:27;;;;;;;;;;;22.50;98.50;;;;;;5027519;28;19925;-86
2023/06/10 10:38:56;;;;;;;;;;;22.60;96.80;;;;;;4996347;28;20357;-87
2023/06/10 10:41:31;;;;;;;;;;;22.70;96.60;;;;;;5001821;28;19926;-88
2023/06/10 10:43:57;;;;;;;;;;;23.10;97.30;;;;;;5028817;28;19932;-87
2023/06/10 10:46:30;;;;;;;;;;;23.30;97.40;;;;;;5021388;28;19925;-88
2023/06/10 10:48:56;;;;;;;;;;;23.10;97.00;;;;;;5020454;28;19973;-90
2023/06/10 10:51:37;;;;;;;;;;;23.20;96.20;;;;;;5048249;28;19929;-87
2023/06/10 10:54:32;;;;;;;;;;;23.20;94.70;;;;;;5030658;28;19929;-90
2023/06/10 10:57:13;;;;;;;;;;;22.30;94.10;;;;;;5004834;28;19925;-87
2023/06/10 10:59:51;;;;;;;;;;;23.70;93.70;;;;;;5027011;28;20438;-88
2023/06/10 11:02:20;;;;;;;;;;;23.40;92.90;;;;;;5019297;28;20393;-87
2023/06/10 11:04:46;;;;;;;;;;;23.50;93.60;;;;;;5009466;28;19929;-89
2023/06/10 11:07:21;;;;;;;;;;;22.00;92.90;;;;;;5006116;28;20418;-88
2023/06/10 11:10:04;;;;;;;;;;;23.70;92.50;;;;;;5014868;28;19925;-88
2023/06/10 11:13:07;;;;;;;;;;;23.80;91.20;;;;;;5020014;28;20442;-90
2023/06/10 11:22:41;;;;;;;;;;;;;;;;;;;;;
2023/06/10 11:25:45;;;;;;;;;;;22.90;92.50;;;;;;4974502;28;19968;-89
2023/06/10 11:28:53;;;;;;;;;;;24.30;90.50;;;;;;4962033;28;19932;-90
2023/06/10 11:31:28;;;;;;;;;;;24.30;90.20;;;;;;5000494;28;19936;-90
2023/06/10 11:34:07;;;;;;;;;;;;;;;;;;;;;
2023/06/10 11:36:52;;;;;;;;;;;;;;;;;;;;;
2023/06/10 11:39:41;;;;;;;;;;;24.40;87.90;;;;;;5006379;28;20000;-89
2023/06/10 15:13:37;;;;;;;;;;;27.00;69.70;;;;;;5137397;23;20369;-91
2023/06/10 15:16:06;;;;;;;;;;;27.10;69.50;;;;;;4872416;29;20001;-91
2023/06/10 15:18:32;;;;;;;;;;;27.20;72.30;;;;;;4904643;29;19934;-93
2023/06/10 15:20:57;;;;;;;;;;;27.30;70.90;;;;;;4882629;29;19986;-85
2023/06/10 15:23:23;;;;;;;;;;;27.00;67.70;;;;;;4891916;29;20026;-86
2023/06/10 15:25:49;;;;;;;;;;;26.90;67.80;;;;;;4881358;29;19938;-89
2023/06/10 15:28:14;;;;;;;;;;;26.50;70.20;;;;;;4897072;29;19927;-87
2023/06/10 15:30:40;;;;;;;;;;;26.90;70.00;;;;;;4883707;29;19927;-86
2023/06/10 15:33:06;;;;;;;;;;;26.90;69.90;;;;;;4921125;23;19935;-86
2023/06/10 15:35:32;;;;;;;;;;;26.70;69.90;;;;;;4908083;29;19927;-86
2023/06/10 15:37:58;;;;;;;;;;;26.90;70.70;;;;;;4890006;29;19927;-90
2023/06/10 15:40:26;;;;;;;;;;;26.30;69.50;;;;;;4893474;29;19954;-88
2023/06/10 15:42:51;;;;;;;;;;;26.90;70.50;;;;;;4896769;29;19931;-87
2023/06/10 15:45:17;;;;;;;;;;;26.80;71.40;;;;;;4871658;29;19927;-88
2023/06/10 15:47:43;;;;;;;;;;;26.80;70.70;;;;;;4905119;29;20303;-87
2023/06/10 15:50:09;;;;;;;;;;;26.90;70.40;;;;;;4902389;29;19927;-88
2023/06/10 15:52:37;;;;;;;;;;;26.80;69.90;;;;;;4888850;29;20039;-89
2023/06/10 15:55:02;;;;;;;;;;;26.80;70.70;;;;;;4886947;29;20395;-88
2023/06/10 15:57:30;;;;;;;;;;;26.80;70.40;;;;;;4886593;29;19927;-86
2023/06/10 15:59:56;;;;;;;;;;;26.80;69.50;;;;;;4870498;29;19927;-87
2023/06/10 16:02:22;;;;;;;;;;;26.70;70.20;;;;;;4886657;29;19927;-86
2023/06/10 16:04:47;;;;;;;;;;;26.70;69.10;;;;;;4886414;29;19927;-86
2023/06/10 16:07:13;;;;;;;;;;;26.90;68.30;;;;;;4877445;29;19936;-86
2023/06/10 16:09:39;;;;;;;;;;;26.80;69.30;;;;;;4894524;29;19931;-89
2023/06/10 16:12:05;;;;;;;;;;;26.80;68.80;;;;;;4881699;29;19935;-85
2023/06/10 16:14:31;;;;;;;;;;;26.80;69.10;;;;;;4888568;29;20305;-84
2023/06/10 16:16:57;;;;;;;;;;;26.90;68.30;;;;;;4900924;29;19927;-87
2023/06/10 16:19:26;;;;;;;;;;;26.80;68.90;;;;;;4892829;29;19927;-87
2023/06/10 16:21:51;;;;;;;;;;;26.90;68.40;;;;;;4890491;29;19927;-87
2023/06/10 16:24:17;;;;;;;;;;;26.90;69.00;;;;;;4888303;29;20293;-87
2023/06/10 16:26:43;;;;;;;;;;;26.90;69.40;;;;;;4875783;29;19955;-87
2023/06/10 16:29:09;;;;;;;;;;;27.00;67.40;;;;;;4873271;29;20387;-86
2023/06/10 16:31:35;;;;;;;;;;;27.00;68.10;;;;;;4901567;29;19927;-87
2023/06/10 16:34:00;;;;;;;;;;;26.80;69.70;;;;;;4881868;29;19933;-86
2023/06/10 16:36:26;;;;;;;;;;;26.90;69.70;;;;;;4899339;29;20408;-87
2023/06/10 16:38:57;;;;;;;;;;;26.90;69.30;;;;;;4882799;29;19928;-87
2023/06/10 16:41:23;;;;;;;;;;;26.90;71.40;;;;;;4868927;29;19966;-86
2023/06/10 16:43:49;;;;;;;;;;;26.90;68.50;;;;;;4885583;29;19928;-85
2023/06/10 16:46:15;;;;;;;;;;;26.20;68.80;;;;;;4885973;29;20071;-86
2023/06/10 16:48:44;;;;;;;;;;;26.90;71.20;;;;;;4903639;29;19934;-87
2023/06/10 16:51:10;;;;;;;;;;;27.00;69.20;;;;;;4899016;29;20021;-87
2023/06/10 16:53:38;;;;;;;;;;;26.70;67.80;;;;;;4882124;29;19991;-87
2023/06/10 16:56:04;;;;;;;;;;;26.80;68.50;;;;;;4918151;29;20130;-86
2023/06/10 16:58:49;;;;;;;;;;;26.90;69.00;;;;;;4867194;29;19938;-86
2023/06/10 17:01:18;;;;;;;;;;;26.90;67.90;;;;;;4906993;29;19928;-87
2023/06/10 17:03:45;;;;;;;;;;;27.40;68.40;;;;;;4889107;29;19927;-87
2023/06/10 17:06:10;;;;;;;;;;;26.80;69.30;;;;;;4896229;29;19934;-86
2023/06/10 17:08:36;;;;;;;;;;;26.80;68.30;;;;;;4896103;29;19932;-85
2023/06/10 17:11:02;;;;;;;;;;;26.80;68.60;;;;;;4900012;29;19941;-86
2023/06/10 17:13:27;;;;;;;;;;;26.90;67.00;;;;;;4864373;29;19936;-85
2023/06/10 17:15:55;;;;;;;;;;;26.90;68.80;;;;;;4867940;29;19940;-86
2023/06/10 17:18:21;;;;;;;;;;;26.80;69.40;;;;;;4882685;29;19982;-86
2023/06/10 17:20:47;;;;;;;;;;;26.90;67.50;;;;;;4895470;29;19931;-85
2023/06/10 17:23:12;;;;;;;;;;;27.10;66.60;;;;;;4889282;29;19927;-87
2023/06/10 17:25:38;;;;;;;;;;;27.40;66.10;;;;;;4896105;29;20337;-86
2023/06/10 17:28:04;;;;;;;;;;;27.60;65.50;;;;;;4881286;29;19939;-85
2023/06/10 17:30:30;;;;;;;;;;;26.50;63.70;;;;;;4893127;29;19931;-85
2023/06/10 17:32:55;;;;;;;;;;;28.10;65.40;;;;;;4878307;29;19951;-85
2023/06/10 17:35:21;;;;;;;;;;;28.20;64.70;;;;;;4892814;29;19928;-86
2023/06/10 17:37:51;;;;;;;;;;;28.30;65.10;;;;;;4882203;29;20281;-86
2023/06/10 17:40:17;;;;;;;;;;;28.50;63.90;;;;;;4882486;29;20381;-86
2023/06/10 17:42:43;;;;;;;;;;;28.60;65.30;;;;;;4865546;29;20011;-88
2023/06/10 17:45:09;;;;;;;;;;;28.70;66.20;;;;;;4883586;29;20063;-86
2023/06/10 17:47:35;;;;;;;;;;;28.80;65.90;;;;;;4897591;29;19931;-85
2023/06/10 17:50:00;;;;;;;;;;;28.90;67.10;;;;;;4903231;29;19935;-85
2023/06/10 17:52:26;;;;;;;;;;;28.90;64.80;;;;;;4888520;29;20365;-87
2023/06/10 17:54:52;;;;;;;;;;;28.90;66.90;;;;;;4861205;29;19928;-87
2023/06/10 17:57:17;;;;;;;;;;;28.90;65.50;;;;;;4905499;29;19927;-88
2023/06/10 17:59:43;;;;;;;;;;;28.60;67.20;;;;;;4887596;29;20000;-85
2023/06/10 18:02:09;;;;;;;;;;;27.60;71.20;;;;;;4900744;29;19935;-86
2023/06/10 18:04:35;;;;;;;;;;;27.00;73.10;;;;;;4894605;29;19931;-86